Time;durP1;ratioP1;P1;durP2;ratioP2;P2;SDS_P1;SDS_P2;PMS_P1;PMS_P2;Temp;Humidity;BMP_temperature;BMP_pressure;BME280_temperature;BME280_humidity;BME280_pressure;Samples;Min_cycle;Max_cycle;Signal;HPM_P1;HPM_P2
2021/01/12 00:00:21;;;;;;;2.78;2.58;;;18.70;23.10;;;;;;5077558;28;20186;-57
2021/01/12 00:02:49;;;;;;;3.15;2.90;;;18.70;23.00;;;;;;5077498;28;20181;-58
2021/01/12 00:05:16;;;;;;;2.88;2.60;;;18.70;23.00;;;;;;5077309;28;20154;-57
2021/01/12 00:07:41;;;;;;;2.55;2.40;;;18.70;23.00;;;;;;5076949;28;20169;-57
2021/01/12 00:10:07;;;;;;;3.17;2.50;;;18.70;23.00;;;;;;5077363;28;20508;-58
2021/01/12 00:12:33;;;;;;;3.40;3.00;;;18.70;23.10;;;;;;5077203;28;20692;-57
2021/01/12 00:14:59;;;;;;;2.70;2.50;;;18.70;22.50;;;;;;5075954;28;20529;-57
2021/01/12 00:17:25;;;;;;;2.80;2.60;;;18.70;23.00;;;;;;5076915;28;20204;-57
2021/01/12 00:19:51;;;;;;;2.77;2.53;;;18.70;23.00;;;;;;5077362;28;20602;-57
2021/01/12 00:22:17;;;;;;;5.10;2.97;;;18.60;22.50;;;;;;5076394;28;20193;-59
2021/01/12 00:24:44;;;;;;;2.65;2.45;;;18.70;23.00;;;;;;5077123;28;20166;-58
2021/01/12 00:27:14;;;;;;;2.80;2.60;;;18.60;22.90;;;;;;5076907;28;20155;-58
2021/01/12 00:29:40;;;;;;;2.72;2.50;;;18.70;22.90;;;;;;5077060;28;20166;-58
2021/01/12 00:32:06;;;;;;;2.53;2.33;;;18.60;22.90;;;;;;5076763;28;20187;-57
2021/01/12 00:34:33;;;;;;;2.92;2.72;;;18.70;22.50;;;;;;5076690;28;20151;-58
2021/01/12 00:36:59;;;;;;;3.20;3.00;;;18.70;23.00;;;;;;5076266;28;20166;-58
2021/01/12 00:39:25;;;;;;;2.80;2.60;;;18.70;22.90;;;;;;5075373;28;20597;-57
2021/01/12 00:41:55;;;;;;;2.83;2.63;;;18.70;22.90;;;;;;5076516;28;20653;-58
2021/01/12 00:44:24;;;;;;;3.00;2.80;;;18.70;22.50;;;;;;5076603;28;20629;-57
2021/01/12 00:46:50;;;;;;;2.67;2.47;;;18.60;22.80;;;;;;5076435;28;20168;-57
2021/01/12 00:49:18;;;;;;;3.23;2.90;;;18.70;22.90;;;;;;5074950;28;20232;-58
2021/01/12 00:51:44;;;;;;;3.17;2.95;;;18.70;22.90;;;;;;5076317;28;20193;-58
2021/01/12 00:54:11;;;;;;;2.87;2.67;;;18.70;22.90;;;;;;5075860;28;20183;-58
2021/01/12 00:56:37;;;;;;;2.78;2.50;;;18.70;22.90;;;;;;5074934;28;20170;-58
2021/01/12 00:59:03;;;;;;;2.63;2.42;;;18.70;22.90;;;;;;5076340;28;20161;-57
2021/01/12 01:01:29;;;;;;;2.63;2.42;;;18.70;22.90;;;;;;5075435;28;20159;-57
2021/01/12 01:03:56;;;;;;;2.55;2.30;;;18.70;22.90;;;;;;5076020;28;20162;-57
2021/01/12 01:06:21;;;;;;;3.40;2.75;;;18.70;22.90;;;;;;5076054;28;20162;-57
2021/01/12 01:08:48;;;;;;;2.70;2.50;;;18.70;22.90;;;;;;5074636;28;20155;-57
2021/01/12 01:11:14;;;;;;;2.80;2.60;;;18.70;23.00;;;;;;5074552;28;20185;-58
2021/01/12 01:13:39;;;;;;;2.60;2.40;;;18.70;22.90;;;;;;5076006;28;20186;-57
2021/01/12 01:16:05;;;;;;;2.60;2.40;;;18.70;22.90;;;;;;5075848;28;20665;-57
2021/01/12 01:18:31;;;;;;;2.50;2.30;;;18.70;22.90;;;;;;5075838;28;20255;-56
2021/01/12 01:20:57;;;;;;;3.23;2.93;;;18.70;22.90;;;;;;5075921;28;20645;-57
2021/01/12 01:23:23;;;;;;;2.53;2.33;;;18.70;22.90;;;;;;5075368;28;20409;-57
2021/01/12 01:25:50;;;;;;;2.30;2.10;;;18.70;22.40;;;;;;5074544;28;20503;-57
2021/01/12 01:28:16;;;;;;;2.25;2.03;;;18.70;22.90;;;;;;5074522;28;20261;-56
2021/01/12 01:30:41;;;;;;;2.40;2.20;;;18.70;22.80;;;;;;5075941;28;20616;-57
2021/01/12 01:33:07;;;;;;;2.97;2.77;;;18.70;22.80;;;;;;5075484;28;20488;-57
2021/01/12 01:35:32;;;;;;;3.00;2.80;;;18.70;22.80;;;;;;5075657;28;20204;-57
2021/01/12 01:37:59;;;;;;;2.30;2.20;;;18.80;22.40;;;;;;5075214;28;20518;-56
2021/01/12 01:40:25;;;;;;;2.53;2.33;;;18.80;22.90;;;;;;5075588;28;20237;-57
2021/01/12 01:42:51;;;;;;;2.78;2.58;;;18.80;22.90;;;;;;5074207;28;20178;-57
2021/01/12 01:45:19;;;;;;;2.27;2.10;;;18.80;22.80;;;;;;5075428;28;20152;-58
2021/01/12 01:47:46;;;;;;;2.45;2.25;;;18.80;22.80;;;;;;5075431;28;20412;-57
2021/01/12 01:50:14;;;;;;;2.35;2.15;;;18.80;22.80;;;;;;5075917;28;20541;-58
2021/01/12 01:52:40;;;;;;;2.40;2.20;;;18.80;22.80;;;;;;5073755;28;20213;-58
2021/01/12 01:55:07;;;;;;;2.45;2.25;;;18.80;22.80;;;;;;5075344;28;20169;-57
2021/01/12 01:57:33;;;;;;;2.63;2.42;;;18.80;22.30;;;;;;5075235;28;20200;-57
2021/01/12 01:59:58;;;;;;;3.07;2.87;;;18.80;22.80;;;;;;5075239;28;20162;-58
2021/01/12 02:02:24;;;;;;;2.93;2.73;;;18.80;22.80;;;;;;5075145;28;20524;-57
2021/01/12 02:04:52;;;;;;;2.97;2.60;;;18.80;22.80;;;;;;5075155;28;20630;-57
2021/01/12 02:07:19;;;;;;;2.88;2.45;;;18.80;22.70;;;;;;5073253;28;20270;-57
2021/01/12 02:09:51;;;;;;;3.03;2.78;;;18.80;22.20;;;;;;5075333;28;20162;-57
2021/01/12 02:12:27;;;;;;;3.25;2.75;;;18.80;22.20;;;;;;5073345;28;20232;-57
2021/01/12 02:14:54;;;;;;;2.50;2.30;;;18.90;22.70;;;;;;5074804;28;20197;-57
2021/01/12 02:17:19;;;;;;;2.55;2.35;;;18.80;22.60;;;;;;5073258;28;20171;-57
2021/01/12 02:19:49;;;;;;;2.73;2.53;;;;;;;;;;5074598;28;20293;-56
2021/01/12 02:22:22;;;;;;;2.75;2.55;;;18.90;22.20;;;;;;5074185;28;20434;-57
2021/01/12 02:24:48;;;;;;;3.42;3.20;;;18.90;22.70;;;;;;5074795;28;20280;-57
2021/01/12 02:27:23;;;;;;;2.40;2.20;;;18.90;22.80;;;;;;5074571;28;20525;-57
2021/01/12 02:29:50;;;;;;;2.38;2.10;;;18.90;22.60;;;;;;5074761;28;20150;-57
2021/01/12 02:32:21;;;;;;;2.65;2.45;;;18.90;22.60;;;;;;5107267;28;20277;-57
2021/01/12 02:34:52;;;;;;;2.60;2.40;;;18.90;22.60;;;;;;5074609;28;20155;-57
2021/01/12 02:37:18;;;;;;;2.95;2.70;;;18.90;22.60;;;;;;5072674;28;20159;-57
2021/01/12 02:39:44;;;;;;;2.88;2.60;;;18.90;22.60;;;;;;5074725;28;20253;-57
2021/01/12 02:42:19;;;;;;;2.80;2.50;;;18.90;22.60;;;;;;5073054;28;20189;-57
2021/01/12 02:44:45;;;;;;;2.50;2.30;;;18.90;22.60;;;;;;5073193;28;20474;-57
2021/01/12 02:47:11;;;;;;;2.27;2.17;;;18.90;22.90;;;;;;5073022;28;20628;-55
2021/01/12 02:49:37;;;;;;;2.40;2.30;;;18.90;22.60;;;;;;5074276;28;20699;-57
2021/01/12 02:52:02;;;;;;;2.83;2.63;;;18.90;22.50;;;;;;5072506;28;20440;-56
2021/01/12 02:54:28;;;;;;;2.33;2.13;;;18.90;22.50;;;;;;5074156;28;20159;-57
2021/01/12 02:56:54;;;;;;;2.60;2.40;;;18.90;22.50;;;;;;5074198;28;20150;-56
2021/01/12 02:59:20;;;;;;;2.80;2.60;;;18.90;22.50;;;;;;5074504;28;20181;-56
2021/01/12 03:01:45;;;;;;;2.23;2.13;;;18.90;22.50;;;;;;5073920;28;20186;-56
2021/01/12 03:04:11;;;;;;;2.63;2.43;;;19.00;22.50;;;;;;5074018;28;20151;-57
2021/01/12 03:06:37;;;;;;;2.97;2.77;;;19.00;22.10;;;;;;5072823;28;20159;-56
2021/01/12 03:09:03;;;;;;;2.70;2.50;;;18.90;22.50;;;;;;5073526;28;20165;-57
2021/01/12 03:11:29;;;;;;;2.47;2.33;;;19.00;22.50;;;;;;5072566;28;20163;-57
2021/01/12 03:13:57;;;;;;;3.30;3.00;;;19.00;22.50;;;;;;5073896;28;20235;-57
2021/01/12 03:16:22;;;;;;;2.90;2.60;;;19.00;22.50;;;;;;5073622;28;20332;-56
2021/01/12 03:18:48;;;;;;;2.70;2.50;;;19.00;22.50;;;;;;5072611;28;20261;-56
2021/01/12 03:21:14;;;;;;;2.43;2.23;;;19.00;22.50;;;;;;5073795;28;20265;-56
2021/01/12 03:23:39;;;;;;;2.67;2.47;;;19.00;22.50;;;;;;5073388;28;20182;-56
2021/01/12 03:26:05;;;;;;;4.03;2.37;;;19.00;22.50;;;;;;5073862;28;20155;-56
2021/01/12 03:28:31;;;;;;;3.00;2.80;;;19.00;23.00;;;;;;5072536;28;20539;-56
2021/01/12 03:30:57;;;;;;;2.37;2.17;;;19.00;22.50;;;;;;5072876;28;20684;-56
2021/01/12 03:33:22;;;;;;;2.33;2.22;;;19.00;22.40;;;;;;5072365;28;20193;-57
2021/01/12 03:35:49;;;;;;;2.53;2.33;;;19.00;22.50;;;;;;5055623;28;20593;-57
2021/01/12 03:38:15;;;;;;;2.17;2.08;;;19.00;22.40;;;;;;5073233;28;20484;-58
2021/01/12 03:40:40;;;;;;;2.33;2.17;;;19.00;22.40;;;;;;5073613;28;20579;-56
2021/01/12 03:43:06;;;;;;;2.27;1.97;;;19.00;22.40;;;;;;5073402;28;20383;-56
2021/01/12 03:45:32;;;;;;;2.50;2.30;;;19.00;21.90;;;;;;5073467;28;20614;-57
2021/01/12 03:47:58;;;;;;;2.27;2.07;;;19.00;22.40;;;;;;5073495;28;20379;-56
2021/01/12 03:50:27;;;;;;;2.60;2.40;;;19.00;23.00;;;;;;5073529;28;20194;-57
2021/01/12 03:52:54;;;;;;;3.15;2.70;;;19.00;22.40;;;;;;5072918;28;20448;-57
2021/01/12 03:55:20;;;;;;;2.30;2.20;;;19.00;22.40;;;;;;5073452;28;20158;-57
2021/01/12 03:57:49;;;;;;;2.22;2.05;;;19.00;22.40;;;;;;5072259;28;20155;-57
2021/01/12 04:00:15;;;;;;;2.92;2.25;;;19.00;22.40;;;;;;5073335;28;20162;-57
2021/01/12 04:02:41;;;;;;;2.20;2.00;;;19.10;22.40;;;;;;5072401;28;20260;-56
2021/01/12 04:05:07;;;;;;;2.50;2.30;;;19.10;22.50;;;;;;5073416;28;20209;-57
2021/01/12 04:07:32;;;;;;;2.30;2.10;;;19.00;22.40;;;;;;5072900;28;20559;-57
2021/01/12 04:09:58;;;;;;;1.90;1.80;;;19.10;22.40;;;;;;5073358;28;20175;-56
2021/01/12 04:12:24;;;;;;;3.30;3.00;;;19.10;22.50;;;;;;5073112;28;20194;-57
2021/01/12 04:14:49;;;;;;;2.20;2.00;;;19.10;22.40;;;;;;5073102;28;20301;-57
2021/01/12 04:17:15;;;;;;;2.83;2.57;;;19.10;22.40;;;;;;5071711;28;20686;-56
2021/01/12 04:19:41;;;;;;;2.70;2.50;;;19.10;22.40;;;;;;5073415;28;20184;-57
2021/01/12 04:22:07;;;;;;;2.10;2.00;;;19.10;22.40;;;;;;5073128;28;20292;-56
2021/01/12 04:24:33;;;;;;;2.77;2.50;;;19.10;22.30;;;;;;5072026;28;20166;-56
2021/01/12 04:26:59;;;;;;;2.42;2.22;;;19.10;22.30;;;;;;5073200;28;20558;-56
2021/01/12 04:29:24;;;;;;;2.70;2.50;;;19.10;22.30;;;;;;5073096;28;20536;-56
2021/01/12 04:31:50;;;;;;;1.90;1.80;;;19.10;22.30;;;;;;5073144;28;20179;-56
2021/01/12 04:34:16;;;;;;;2.30;2.10;;;19.10;22.30;;;;;;5055094;28;20163;-56
2021/01/12 04:36:41;;;;;;;2.27;2.17;;;19.20;22.40;;;;;;5072067;28;20166;-56
2021/01/12 04:39:07;;;;;;;3.03;2.83;;;19.10;22.30;;;;;;5072481;28;20476;-56
2021/01/12 04:41:33;;;;;;;2.03;1.93;;;19.10;22.30;;;;;;5073166;28;20177;-55
2021/01/12 04:43:58;;;;;;;2.40;2.20;;;19.20;22.40;;;;;;5076638;28;20517;-56
2021/01/12 04:46:24;;;;;;;2.43;2.23;;;19.20;22.30;;;;;;5076481;28;20198;-56
2021/01/12 04:48:50;;;;;;;2.27;2.10;;;19.20;22.30;;;;;;5075374;28;20161;-56
2021/01/12 04:51:16;;;;;;;2.57;2.37;;;19.20;22.30;;;;;;5076575;28;20186;-56
2021/01/12 04:53:47;;;;;;;2.40;2.20;;;19.20;22.30;;;;;;5075939;28;20216;-56
2021/01/12 04:56:19;;;;;;;2.38;2.17;;;19.20;22.30;;;;;;5076448;28;20192;-57
2021/01/12 04:58:56;;;;;;;2.58;2.38;;;19.20;22.20;;;;;;5076258;28;20217;-57
2021/01/12 05:01:23;;;;;;;2.22;2.10;;;19.20;22.20;;;;;;5076192;28;20161;-56
2021/01/12 05:03:52;;;;;;;2.63;2.30;;;19.20;22.20;;;;;;5076307;28;20614;-56
2021/01/12 05:06:23;;;;;;;2.47;2.28;;;19.30;21.80;;;;;;5074967;28;20162;-56
2021/01/12 05:08:56;;;;;;;2.80;2.55;;;19.20;22.20;;;;;;5075798;28;20143;-56
2021/01/12 05:11:31;;;;;;;2.38;2.17;;;19.30;22.30;;;;;;5074939;28;20243;-57
2021/01/12 05:14:11;;;;;;;2.80;2.60;;;19.30;22.20;;;;;;5075986;28;20186;-57
2021/01/12 05:16:49;;;;;;;2.50;2.30;;;19.30;22.20;;;;;;5075690;28;20221;-56
2021/01/12 05:19:21;;;;;;;2.55;2.30;;;19.30;21.70;;;;;;5075927;28;20169;-56
2021/01/12 05:21:48;;;;;;;2.60;2.40;;;19.30;22.20;;;;;;5075843;28;20724;-57
2021/01/12 05:24:19;;;;;;;2.22;2.08;;;19.30;22.20;;;;;;5075379;28;20208;-57
2021/01/12 05:26:45;;;;;;;2.63;2.42;;;19.30;22.20;;;;;;5076114;28;20185;-56
2021/01/12 05:29:11;;;;;;;2.55;2.35;;;19.40;22.20;;;;;;5075852;28;20154;-57
2021/01/12 05:31:37;;;;;;;2.20;2.00;;;19.40;22.20;;;;;;5075642;28;20534;-57
2021/01/12 05:34:10;;;;;;;2.65;2.45;;;19.30;22.10;;;;;;5075456;28;20178;-57
2021/01/12 05:36:50;;;;;;;3.17;2.40;;;19.40;22.20;;;;;;5075622;28;20633;-57
2021/01/12 05:39:18;;;;;;;2.72;2.53;;;19.40;22.20;;;;;;5075218;28;20169;-56
2021/01/12 05:41:46;;;;;;;2.70;2.50;;;19.40;22.10;;;;;;5074167;28;20262;-56
2021/01/12 05:44:19;;;;;;;2.40;2.30;;;19.40;22.10;;;;;;5074000;28;20166;-57
2021/01/12 05:46:52;;;;;;;3.20;2.85;;;19.40;22.20;;;;;;5075430;28;20147;-56
2021/01/12 05:49:22;;;;;;;2.75;2.15;;;19.40;21.60;;;;;;5090900;28;20173;-57
2021/01/12 05:51:50;;;;;;;2.42;2.28;;;19.40;22.10;;;;;;5075240;28;20151;-57
2021/01/12 05:54:31;;;;;;;2.35;2.25;;;19.40;22.10;;;;;;5074175;28;20147;-56
2021/01/12 05:57:05;;;;;;;2.65;2.45;;;19.40;22.10;;;;;;5075087;28;20177;-56
2021/01/12 05:59:37;;;;;;;2.70;2.50;;;22.70;24.30;;;;;;5075307;28;20158;-57
2021/01/12 06:02:08;;;;;;;2.63;2.47;;;19.50;22.20;;;;;;5073744;28;20181;-57
2021/01/12 06:04:34;;;;;;;2.60;2.40;;;19.50;22.20;;;;;;5075059;28;20158;-57
2021/01/12 06:07:00;;;;;;;2.50;2.30;;;19.50;22.10;;;;;;5074654;28;20209;-56
2021/01/12 06:09:26;;;;;;;2.33;2.05;;;19.50;22.10;;;;;;5074973;28;20645;-57
2021/01/12 06:11:54;;;;;;;2.60;2.40;;;19.50;22.10;;;;;;5073628;28;20182;-55
2021/01/12 06:14:27;;;;;;;2.60;2.40;;;19.50;22.10;;;;;;5074888;28;20449;-57
2021/01/12 06:16:54;;;;;;;2.47;2.28;;;19.50;22.10;;;;;;5075129;28;20190;-56
2021/01/12 06:19:25;;;;;;;2.95;2.20;;;19.50;22.10;;;;;;5074932;28;20170;-57
2021/01/12 06:21:53;;;;;;;2.75;2.55;;;19.50;22.00;;;;;;5074553;28;20610;-57
2021/01/12 06:24:40;;;;;;;2.70;2.50;;;19.50;22.00;;;;;;5074017;28;20200;-58
2021/01/12 06:27:07;;;;;;;2.60;2.40;;;19.60;22.10;;;;;;5074590;28;20146;-58
2021/01/12 06:29:34;;;;;;;2.50;2.30;;;19.60;22.00;;;;;;5074553;28;20688;-56
2021/01/12 06:31:59;;;;;;;2.72;2.53;;;19.60;22.00;;;;;;5073085;28;20159;-57
2021/01/12 06:34:26;;;;;;;2.53;2.33;;;19.60;22.00;;;;;;5074248;28;20661;-57
2021/01/12 06:36:56;;;;;;;2.75;2.55;;;19.60;22.00;;;;;;5074340;28;20153;-57
2021/01/12 06:39:48;;;;;;;3.00;2.80;;;19.60;22.00;;;;;;5074426;28;20150;-56
2021/01/12 06:42:23;;;;;;;2.97;2.78;;;19.60;22.00;;;;;;5072767;28;20182;-55
2021/01/12 06:44:51;;;;;;;2.75;2.55;;;19.60;22.00;;;;;;5074224;28;20161;-56
2021/01/12 06:47:19;;;;;;;2.50;2.30;;;19.60;21.50;;;;;;5073669;28;20177;-56
2021/01/12 06:49:45;;;;;;;2.78;2.58;;;19.60;21.90;;;;;;5074102;28;20180;-56
2021/01/12 06:52:13;;;;;;;2.70;2.50;;;19.70;22.00;;;;;;5072189;28;20273;-56
2021/01/12 06:54:43;;;;;;;2.70;2.55;;;19.70;22.00;;;;;;5073935;28;20158;-57
2021/01/12 06:57:09;;;;;;;2.67;2.42;;;19.70;21.90;;;;;;5073895;28;20169;-57
2021/01/12 06:59:54;;;;;;;2.72;2.53;;;19.70;21.90;;;;;;5073668;28;20158;-56
2021/01/12 07:02:31;;;;;;;3.38;3.17;;;19.70;21.90;;;;;;5073571;28;20158;-56
2021/01/12 07:05:05;;;;;;;2.80;2.60;;;19.70;21.90;;;;;;5073411;28;20162;-57
2021/01/12 07:07:35;;;;;;;2.53;2.33;;;19.70;21.90;;;;;;5072736;28;20211;-57
2021/01/12 07:10:06;;;;;;;2.70;2.50;;;19.70;21.90;;;;;;5073724;28;20161;-57
2021/01/12 07:12:32;;;;;;;2.80;2.60;;;19.70;21.90;;;;;;5073723;28;20212;-56
2021/01/12 07:15:04;;;;;;;2.63;2.43;;;19.70;21.90;;;;;;5073390;28;20679;-56
2021/01/12 07:17:41;;;;;;;5.03;4.40;;;19.80;21.90;;;;;;5069449;28;20788;-59
2021/01/12 07:20:27;;;;;;;6.72;5.18;;;19.20;15.70;;;;;;5088530;28;20599;-61
2021/01/12 07:22:53;;;;;;;5.63;5.13;;;17.30;14.00;;;;;;5092437;28;20154;-61
2021/01/12 07:25:37;;;;;;;4.95;4.45;;;17.20;14.70;;;;;;5076254;28;20229;-57
2021/01/12 07:28:09;;;;;;;5.07;4.40;;;16.80;16.60;;;;;;5072188;28;20166;-58
2021/01/12 07:30:39;;;;;;;4.07;3.67;;;16.80;18.10;;;;;;5071854;28;20174;-57
2021/01/12 07:33:07;;;;;;;4.78;4.30;;;15.50;17.20;;;;;;5072638;28;20186;-55
2021/01/12 07:35:35;;;;;;;5.35;4.38;;;17.20;18.30;;;;;;5071623;28;20155;-57
2021/01/12 07:38:02;;;;;;;4.45;3.72;;;17.40;18.50;;;;;;5072313;28;20154;-58
2021/01/12 07:40:29;;;;;;;4.22;3.92;;;17.50;17.90;;;;;;5071558;28;20151;-59
2021/01/12 07:42:57;;;;;;;4.47;4.07;;;17.60;17.50;;;;;;5071308;28;20166;-58
2021/01/12 07:45:25;;;;;;;4.57;4.15;;;17.70;17.00;;;;;;5072737;28;20224;-57
2021/01/12 07:47:55;;;;;;;3.92;3.63;;;17.80;16.80;;;;;;5073051;28;20234;-57
2021/01/12 07:50:23;;;;;;;3.67;3.15;;;17.90;16.60;;;;;;5071747;28;20174;-57
2021/01/12 07:52:49;;;;;;;3.47;3.17;;;17.90;16.10;;;;;;5070741;28;20185;-57
2021/01/12 07:55:15;;;;;;;3.50;3.10;;;18.00;16.10;;;;;;5070596;28;20212;-56
2021/01/12 07:57:41;;;;;;;3.58;3.28;;;18.10;16.20;;;;;;5065860;28;20436;-57
2021/01/12 08:00:13;;;;;;;3.20;2.92;;;18.10;16.20;;;;;;5057010;28;20186;-59
2021/01/12 08:03:05;;;;;;;5.35;3.25;;;18.20;16.40;;;;;;5068269;28;20265;-54
2021/01/12 08:05:31;;;;;;;3.17;2.88;;;18.30;16.60;;;;;;5075922;28;20186;-54
2021/01/12 08:08:03;;;;;;;4.90;3.45;;;18.40;16.80;;;;;;5075884;28;20220;-55
2021/01/12 08:10:37;;;;;;;3.17;2.88;;;18.50;17.00;;;;;;5069166;28;20170;-55
2021/01/12 08:13:10;;;;;;;2.72;2.53;;;18.60;17.20;;;;;;5070925;28;20265;-53
2021/01/12 08:15:37;;;;;;;2.67;2.47;;;18.70;17.40;;;;;;5060471;28;20780;-54
2021/01/12 08:18:10;;;;;;;3.08;2.85;;;18.70;17.50;;;;;;5070489;28;20166;-55
2021/01/12 08:20:37;;;;;;;2.92;2.20;;;18.80;17.70;;;;;;5072966;28;20412;-55
2021/01/12 08:23:03;;;;;;;3.13;2.70;;;18.90;18.00;;;;;;5070712;28;20260;-55
2021/01/12 08:25:31;;;;;;;2.35;2.15;;;18.90;18.10;;;;;;5075183;28;20244;-54
2021/01/12 08:27:59;;;;;;;3.08;2.47;;;19.00;18.20;;;;;;5074070;28;20665;-56
2021/01/12 08:30:30;;;;;;;2.95;1.83;;;19.00;18.20;;;;;;5072586;28;20182;-57
2021/01/12 08:33:02;;;;;;;2.20;2.10;;;19.10;18.40;;;;;;5073129;28;20232;-55
2021/01/12 08:35:30;;;;;;;2.97;2.78;;;19.10;18.30;;;;;;5061807;28;20196;-55
2021/01/12 08:37:58;;;;;;;3.08;2.03;;;19.20;18.60;;;;;;5069910;28;20549;-53
2021/01/12 08:40:28;;;;;;;2.20;2.03;;;19.20;18.70;;;;;;5071758;28;20251;-54
2021/01/12 08:42:55;;;;;;;4.63;2.55;;;19.30;18.30;;;;;;5073669;28;20170;-54
2021/01/12 08:45:21;;;;;;;2.83;1.98;;;19.30;18.80;;;;;;5075273;28;20188;-54
2021/01/12 08:47:47;;;;;;;2.15;1.90;;;19.40;19.00;;;;;;5075587;28;20162;-55
2021/01/12 08:50:14;;;;;;;4.00;2.40;;;19.40;19.00;;;;;;5070696;28;20521;-53
2021/01/12 08:52:47;;;;;;;2.83;2.47;;;19.40;19.10;;;;;;5065235;28;20252;-55
2021/01/12 08:55:20;;;;;;;3.22;2.42;;;19.40;19.20;;;;;;5074678;28;20245;-55
2021/01/12 08:58:00;;;;;;;2.63;1.98;;;19.40;19.10;;;;;;5059145;28;20162;-56
2021/01/12 09:00:34;;;;;;;2.08;1.85;;;19.50;18.70;;;;;;5069367;28;20189;-55
2021/01/12 09:03:00;;;;;;;5.20;2.15;;;19.50;19.20;;;;;;5074817;28;20322;-55
2021/01/12 09:05:27;;;;;;;2.00;1.90;;;19.50;19.20;;;;;;5059743;28;20163;-56
2021/01/12 09:08:07;;;;;;;1.77;1.65;;;19.60;19.30;;;;;;5070544;28;20321;-54
2021/01/12 09:10:34;;;;;;;2.42;2.10;;;19.60;19.60;;;;;;5065793;28;20202;-54
2021/01/12 09:13:13;;;;;;;2.10;1.90;;;19.60;19.50;;;;;;5057733;28;20218;-57
2021/01/12 09:15:51;;;;;;;1.83;1.70;;;19.60;19.00;;;;;;5073338;28;20220;-55
2021/01/12 09:18:19;;;;;;;3.80;2.53;;;19.60;19.30;;;;;;5052026;28;21116;-55
2021/01/12 09:20:59;;;;;;;1.75;1.60;;;19.70;18.90;;;;;;5064253;28;20174;-57
2021/01/12 09:23:28;;;;;;;3.17;1.70;;;19.70;19.00;;;;;;5065164;28;20190;-56
2021/01/12 09:26:01;;;;;;;5.20;2.20;;;19.70;19.30;;;;;;5055481;28;20185;-55
2021/01/12 09:28:30;;;;;;;5.25;2.03;;;19.70;19.40;;;;;;5071970;28;20184;-54
2021/01/12 09:31:05;;;;;;;1.75;1.60;;;19.70;19.30;;;;;;5072733;28;20171;-55
2021/01/12 09:33:31;;;;;;;3.63;2.33;;;19.80;19.40;;;;;;5063104;28;20193;-55
2021/01/12 09:36:03;;;;;;;2.90;2.10;;;19.80;19.60;;;;;;5080979;28;20634;-55
2021/01/12 09:38:36;;;;;;;5.40;2.25;;;19.80;19.60;;;;;;5085896;28;20645;-56
2021/01/12 09:41:03;;;;;;;1.70;1.60;;;19.80;19.60;;;;;;5073971;28;20167;-55
2021/01/12 09:43:28;;;;;;;2.28;1.88;;;19.80;19.70;;;;;;5065122;28;20171;-55
2021/01/12 09:45:56;;;;;;;4.80;2.50;;;19.80;19.80;;;;;;5072426;28;20185;-55
2021/01/12 09:48:22;;;;;;;2.58;2.13;;;19.80;19.70;;;;;;5086721;28;20189;-57
2021/01/12 09:50:48;;;;;;;3.67;1.63;;;19.90;19.90;;;;;;5074070;28;20175;-57
2021/01/12 09:53:15;;;;;;;5.20;2.80;;;19.90;19.80;;;;;;5061950;28;20217;-55
2021/01/12 09:55:41;;;;;;;7.00;2.22;;;19.90;20.10;;;;;;5067330;28;20183;-56
2021/01/12 09:58:08;;;;;;;6.25;3.17;;;19.90;19.80;;;;;;5079623;28;20210;-57
2021/01/12 10:00:34;;;;;;;14.80;4.25;;;19.90;20.00;;;;;;5057419;27;271045;-56
2021/01/12 10:02:59;;;;;;;10.67;3.23;;;19.90;20.00;;;;;;5065182;28;20185;-56
2021/01/12 10:05:25;;;;;;;7.80;2.90;;;20.00;20.00;;;;;;5052184;28;21051;-55
2021/01/12 10:07:51;;;;;;;15.50;4.50;;;19.90;19.70;;;;;;5046366;28;20653;-56
2021/01/12 10:10:17;;;;;;;10.83;4.13;;;20.00;19.60;;;;;;5062244;28;21084;-56
2021/01/12 10:12:42;;;;;;;13.60;4.07;;;20.00;20.40;;;;;;5041057;28;20210;-56
2021/01/12 10:15:08;;;;;;;17.47;3.83;;;20.00;19.80;;;;;;5050112;28;20248;-57
2021/01/12 10:17:35;;;;;;;11.93;4.20;;;20.00;19.70;;;;;;5045919;28;20210;-56
2021/01/12 10:20:01;;;;;;;15.13;4.80;;;20.00;19.30;;;;;;5039260;28;20968;-53
2021/01/12 10:22:26;;;;;;;24.65;6.72;;;20.00;19.80;;;;;;5035105;28;20266;-56
2021/01/12 10:24:55;;;;;;;11.10;4.70;;;20.00;19.90;;;;;;5053345;23;20316;-53
2021/01/12 10:27:22;;;;;;;15.60;5.03;;;20.00;19.90;;;;;;4986734;28;20207;-53
2021/01/12 10:29:49;;;;;;;21.50;4.43;;;20.00;20.00;;;;;;4984910;28;20185;-53
2021/01/12 10:32:15;;;;;;;12.35;4.38;;;20.00;20.00;;;;;;4981179;28;20231;-54
2021/01/12 10:34:40;;;;;;;11.17;4.80;;;20.00;19.90;;;;;;4988193;28;20636;-55
2021/01/12 10:37:06;;;;;;;11.70;5.27;;;20.00;20.00;;;;;;4986901;28;20279;-55
2021/01/12 10:39:32;;;;;;;12.00;5.13;;;20.00;20.10;;;;;;4986700;28;20632;-56
2021/01/12 10:41:58;;;;;;;18.83;5.10;;;20.00;20.20;;;;;;4989311;28;20440;-55
2021/01/12 10:44:24;;;;;;;17.43;6.40;;;18.40;19.10;;;;;;4986484;28;20529;-55
2021/01/12 10:46:56;;;;;;;8.17;4.20;;;20.00;20.20;;;;;;4984648;28;20457;-59
2021/01/12 10:49:22;;;;;;;15.98;6.18;;;20.10;20.30;;;;;;4990066;28;20177;-55
2021/01/12 10:51:57;;;;;;;11.57;4.30;;;20.10;20.30;;;;;;4969636;28;20235;-55
2021/01/12 10:54:22;;;;;;;22.52;5.00;;;20.10;19.90;;;;;;4981133;28;20186;-55
2021/01/12 10:56:48;;;;;;;12.83;4.10;;;20.10;20.00;;;;;;4971460;28;20272;-54
2021/01/12 10:59:14;;;;;;;17.23;4.37;;;20.10;20.10;;;;;;4995672;28;20174;-54
2021/01/12 11:01:40;;;;;;;8.57;4.37;;;20.10;20.20;;;;;;4981121;28;20535;-55
2021/01/12 11:04:05;;;;;;;11.60;4.27;;;20.10;20.00;;;;;;4974671;28;20567;-56
2021/01/12 11:06:36;;;;;;;9.33;4.13;;;19.70;19.50;;;;;;4988938;28;20477;-55
2021/01/12 11:09:02;;;;;;;11.98;4.03;;;20.20;19.70;;;;;;4988619;28;20211;-54
2021/01/12 11:11:33;;;;;;;13.60;4.60;;;20.20;20.10;;;;;;4991766;28;20193;-54
2021/01/12 11:14:03;;;;;;;9.45;3.85;;;20.20;20.30;;;;;;4981413;28;20549;-51
2021/01/12 11:16:42;;;;;;;10.23;4.40;;;20.20;20.40;;;;;;4990235;28;20208;-54
2021/01/12 11:19:11;;;;;;;12.25;4.40;;;20.20;20.40;;;;;;4973578;28;20189;-54
2021/01/12 11:21:57;;;;;;;7.28;3.70;;;20.20;20.50;;;;;;4973491;28;20178;-53
2021/01/12 11:24:24;;;;;;;9.23;4.05;;;20.20;20.40;;;;;;4978590;28;20212;-54
2021/01/12 11:26:51;;;;;;;10.23;3.47;;;20.20;20.40;;;;;;4986952;28;20192;-51
2021/01/12 11:29:17;;;;;;;12.15;4.00;;;20.20;20.40;;;;;;4989257;28;20173;-53
2021/01/12 11:31:43;;;;;;;5.03;3.20;;;20.20;20.40;;;;;;4980306;28;20185;-52
2021/01/12 11:34:09;;;;;;;8.35;3.88;;;20.20;20.40;;;;;;4984690;28;20264;-53
2021/01/12 11:36:35;;;;;;;9.55;3.65;;;20.20;20.40;;;;;;4978903;28;20240;-54
2021/01/12 11:39:02;;;;;;;8.85;3.60;;;20.20;20.40;;;;;;4977130;28;20187;-53
2021/01/12 11:41:28;;;;;;;7.60;3.60;;;20.20;20.40;;;;;;4972338;28;20188;-52
2021/01/12 11:43:54;;;;;;;12.07;3.80;;;20.20;20.40;;;;;;4972615;28;20190;-53
2021/01/12 11:46:31;;;;;;;12.90;3.70;;;20.20;20.40;;;;;;4977058;28;20180;-54
2021/01/12 11:48:58;;;;;;;7.95;3.53;;;20.20;20.40;;;;;;4977120;28;20406;-53
2021/01/12 11:51:33;;;;;;;8.85;3.83;;;20.20;20.40;;;;;;4992783;28;20315;-53
2021/01/12 11:53:59;;;;;;;4.35;2.75;;;20.10;20.30;;;;;;4990508;28;20204;-54
2021/01/12 11:56:24;;;;;;;13.10;3.20;;;20.20;20.40;;;;;;4994135;28;20193;-55
2021/01/12 11:58:50;;;;;;;12.83;3.57;;;20.30;20.40;;;;;;4989653;28;20422;-54
2021/01/12 12:01:16;;;;;;;6.50;3.10;;;20.20;20.40;;;;;;4981446;28;20608;-55
2021/01/12 12:03:42;;;;;;;8.97;3.53;;;20.20;19.90;;;;;;4989524;28;20196;-55
2021/01/12 12:06:11;;;;;;;10.10;3.60;;;20.20;20.40;;;;;;4984227;28;20188;-55
2021/01/12 12:08:37;;;;;;;12.18;3.40;;;20.20;20.40;;;;;;4972415;28;20189;-54
2021/01/12 12:11:03;;;;;;;10.73;4.23;;;20.20;20.40;;;;;;4988112;28;20215;-54
2021/01/12 12:13:29;;;;;;;4.67;3.37;;;20.30;20.40;;;;;;4994432;28;20196;-55
2021/01/12 12:15:55;;;;;;;11.90;3.45;;;20.30;20.40;;;;;;4995157;28;20176;-55
2021/01/12 12:18:21;;;;;;;10.18;3.13;;;20.20;20.40;;;;;;4994864;28;20212;-55
2021/01/12 12:20:47;;;;;;;7.20;3.37;;;20.20;20.40;;;;;;4996570;28;20599;-53
2021/01/12 12:23:12;;;;;;;7.38;3.45;;;20.30;20.40;;;;;;4995719;28;20181;-55
2021/01/12 12:25:39;;;;;;;9.63;3.40;;;20.30;20.40;;;;;;4984293;28;20224;-54
2021/01/12 12:28:05;;;;;;;9.38;3.15;;;20.30;20.40;;;;;;5003852;28;20188;-56
2021/01/12 12:30:30;;;;;;;8.80;3.05;;;20.30;20.40;;;;;;4995612;28;20165;-55
2021/01/12 12:32:56;;;;;;;7.00;3.30;;;20.30;20.40;;;;;;4995722;28;20215;-54
2021/01/12 12:35:22;;;;;;;5.83;2.53;;;20.30;20.40;;;;;;4995390;28;20585;-55
2021/01/12 12:37:48;;;;;;;5.67;2.40;;;20.30;20.40;;;;;;4995667;28;20514;-55
2021/01/12 12:40:14;;;;;;;3.70;3.07;;;20.30;20.50;;;;;;4995332;28;20655;-55
2021/01/12 12:42:40;;;;;;;5.45;2.53;;;20.30;20.40;;;;;;4996113;28;20176;-56
2021/01/12 12:45:06;;;;;;;4.63;2.23;;;20.30;20.40;;;;;;4995837;28;20165;-57
2021/01/12 12:47:35;;;;;;;10.77;2.33;;;20.30;20.40;;;;;;4995818;28;20430;-56
2021/01/12 12:50:01;;;;;;;4.78;2.50;;;20.30;20.40;;;;;;4977791;28;20647;-55